createdAt,value
2019-03-11T00:02:37.988Z,32.7
2019-03-11T00:07:33.715Z,33
2019-03-11T00:12:29.493Z,33.1
2019-03-11T00:17:25.464Z,33.4
2019-03-11T00:22:21.243Z,33.7
2019-03-11T00:27:17.019Z,33.9
2019-03-11T00:32:13.063Z,34
2019-03-11T00:37:08.929Z,34.4
2019-03-11T00:42:04.546Z,34.9
2019-03-11T00:47:00.320Z,35.1
2019-03-11T00:51:55.899Z,35.3
2019-03-11T00:56:51.368Z,35.5
2019-03-11T01:01:47.285Z,35.4
2019-03-11T01:06:42.855Z,35.6
2019-03-11T01:11:38.527Z,35.6
2019-03-11T01:16:34.133Z,35.5
2019-03-11T01:21:29.635Z,35.5
2019-03-11T01:26:25.440Z,35.7
2019-03-11T01:31:20.992Z,35.8
2019-03-11T01:36:16.829Z,36
2019-03-11T01:41:12.304Z,36.2
2019-03-11T01:46:07.947Z,36.4
2019-03-11T01:51:03.498Z,37
2019-03-11T01:55:59.212Z,37.2
2019-03-11T02:00:54.810Z,37.2
2019-03-11T02:05:50.452Z,37.8
2019-03-11T02:10:45.924Z,38.1
2019-03-11T02:15:40.993Z,38.2
2019-03-11T02:20:36.774Z,38.4
2019-03-11T02:25:32.385Z,38.5
2019-03-11T02:30:27.949Z,38.5
2019-03-11T02:35:23.667Z,38.4
2019-03-11T02:40:19.492Z,38.6
2019-03-11T02:45:14.961Z,38.7
2019-03-11T02:50:10.835Z,38.8
2019-03-11T02:55:06.500Z,39.1
2019-03-11T03:00:02.215Z,38.9
2019-03-11T03:04:58.544Z,39.2
2019-03-11T03:09:53.801Z,39.3
2019-03-11T03:14:49.248Z,39.6
2019-03-11T03:19:44.451Z,39.9
2019-03-11T03:24:40.255Z,40.2
2019-03-11T03:29:36.403Z,40.5
2019-03-11T03:34:32.106Z,40.6
2019-03-11T03:39:28.037Z,40.7
2019-03-11T03:44:23.997Z,40.9
2019-03-11T03:49:19.561Z,40.8
2019-03-11T03:54:15.442Z,41
2019-03-11T03:59:11.210Z,41.2
2019-03-11T04:04:06.959Z,41.2
2019-03-11T04:09:02.790Z,41.8
2019-03-11T04:13:58.433Z,41.7
2019-03-11T04:18:54.271Z,42.2
2019-03-11T04:23:49.945Z,42.2
2019-03-11T04:28:45.406Z,42.5
2019-03-11T04:33:41.275Z,42.7
2019-03-11T04:38:37.502Z,42.9
2019-03-11T04:43:33.345Z,43.2
2019-03-11T04:48:32.814Z,43.5
2019-03-11T04:53:27.577Z,43.5
2019-03-11T04:58:23.557Z,43.9
2019-03-11T05:03:19.327Z,44.3
2019-03-11T05:08:15.163Z,44.2
2019-03-11T05:13:11.009Z,44.9
2019-03-11T05:18:06.932Z,44.5
2019-03-11T05:23:02.863Z,44.4
2019-03-11T05:27:58.938Z,44.4
2019-03-11T05:32:52.637Z,44.2
2019-03-11T05:37:48.717Z,44.2
2019-03-11T05:42:44.216Z,44.1
2019-03-11T05:47:40.091Z,44.3
2019-03-11T05:52:35.944Z,43.8
2019-03-11T05:57:31.780Z,43.8
2019-03-11T06:02:27.715Z,44.1
2019-03-11T06:07:23.345Z,44.2
2019-03-11T06:12:19.065Z,44.5
2019-03-11T06:17:15.120Z,44.7
2019-03-11T06:22:10.900Z,44.6
2019-03-11T06:27:07.036Z,45
2019-03-11T06:32:03.425Z,44.9
2019-03-11T06:36:59.627Z,44.7
2019-03-11T06:41:55.767Z,44.8
2019-03-11T06:46:52.093Z,44.5
2019-03-11T06:51:47.994Z,44.5
2019-03-11T06:56:43.964Z,44.4
2019-03-11T07:01:39.636Z,44.2
2019-03-11T07:06:35.166Z,44.4
2019-03-11T07:11:30.899Z,44.4
2019-03-11T07:16:27.181Z,44.2
2019-03-11T07:21:23.380Z,44.2
2019-03-11T07:26:19.874Z,44.1
2019-03-11T07:31:15.876Z,44.1
2019-03-11T07:36:11.986Z,44
2019-03-11T07:41:08.010Z,44
2019-03-11T07:46:03.885Z,44
2019-03-11T07:50:59.653Z,43.9
2019-03-11T07:55:55.761Z,43.8
2019-03-11T08:00:54.036Z,43.9
2019-03-11T08:05:46.869Z,43.6
2019-03-11T08:10:43.080Z,43.4
2019-03-11T08:15:39.240Z,43.4
2019-03-11T08:20:35.337Z,42.9
2019-03-11T08:25:31.081Z,43.3
2019-03-11T08:30:27.266Z,42.9
2019-03-11T08:35:23.449Z,42.6
2019-03-11T08:40:19.584Z,42.3
2019-03-11T08:45:15.853Z,42.1
2019-03-11T08:50:11.755Z,42
2019-03-11T08:55:07.775Z,41.6
2019-03-11T09:00:04.500Z,40.7
2019-03-11T09:05:00.356Z,40.2
2019-03-11T09:09:56.377Z,40
2019-03-11T09:14:52.383Z,39.9
2019-03-11T09:19:48.133Z,39.6
2019-03-11T09:24:44.835Z,39.5
2019-03-11T09:29:40.389Z,39.3
2019-03-11T09:34:36.544Z,39.4
2019-03-11T09:39:32.746Z,39.3
2019-03-11T09:44:28.609Z,39.5
2019-03-11T09:49:24.728Z,39.6
2019-03-11T09:54:20.823Z,39.7
2019-03-11T09:59:16.703Z,40
2019-03-11T10:04:12.490Z,40.4
2019-03-11T10:09:08.421Z,40.6
2019-03-11T10:14:04.354Z,40.7
2019-03-11T10:19:00.772Z,41.2
2019-03-11T10:23:56.337Z,41.3
2019-03-11T10:28:52.282Z,41.1
2019-03-11T10:33:47.934Z,40.9
2019-03-11T10:43:39.545Z,40.7
2019-03-11T10:48:37.350Z,41
2019-03-11T10:53:32.255Z,41
2019-03-11T10:58:29.142Z,41.1
2019-03-11T11:03:23.833Z,40.9
2019-03-11T11:08:19.217Z,40.9
2019-03-11T11:13:15.057Z,40.7
2019-03-11T11:18:11.192Z,40.6
2019-03-11T11:23:07.266Z,40.4
2019-03-11T11:28:03.553Z,39.4
2019-03-11T11:32:59.499Z,39.4
2019-03-11T11:37:55.495Z,39.3
2019-03-11T11:42:51.774Z,39.4
2019-03-11T11:47:48.025Z,39.3
2019-03-11T11:52:43.848Z,38.9
2019-03-11T11:57:40.160Z,37.9
2019-03-11T12:02:36.566Z,37.4
2019-03-11T12:07:33.072Z,36.9
2019-03-11T12:12:29.068Z,36.4
2019-03-11T12:17:25.527Z,36.5
2019-03-11T12:22:21.209Z,37.2
2019-03-11T12:27:17.136Z,37.6
2019-03-11T12:32:13.238Z,37.6
2019-03-11T12:37:09.098Z,37.9
2019-03-11T12:42:05.324Z,37.9
2019-03-11T12:47:01.479Z,37.9
2019-03-11T12:51:57.470Z,38.1
2019-03-11T12:56:53.246Z,37.7
2019-03-11T13:01:48.462Z,37.2
2019-03-11T13:06:44.586Z,37
2019-03-11T13:11:40.633Z,37.3
2019-03-11T13:16:36.015Z,37.7
2019-03-11T13:21:32.367Z,38
2019-03-11T13:26:28.177Z,38.3
2019-03-11T13:31:24.172Z,38.5
2019-03-11T13:36:20.234Z,38.3
2019-03-11T13:41:16.147Z,38.4
2019-03-11T13:46:11.765Z,38.4
2019-03-11T13:51:08.034Z,39
2019-03-11T13:56:04.063Z,39.7
2019-03-11T14:00:59.783Z,40.4
2019-03-11T14:05:56.003Z,40.8
2019-03-11T14:10:51.653Z,41.4
2019-03-11T14:15:47.396Z,41.7
2019-03-11T14:20:43.078Z,42
2019-03-11T14:25:38.831Z,42.2
2019-03-11T14:30:34.628Z,42.4
2019-03-11T14:35:30.508Z,42.8
2019-03-11T14:40:25.797Z,42.8
2019-03-11T14:45:21.744Z,43.2
2019-03-11T14:50:17.668Z,43.3
2019-03-11T14:55:13.210Z,43.8
2019-03-11T15:00:09.046Z,44.1
2019-03-11T15:05:04.819Z,44.4
2019-03-11T15:10:00.658Z,44.6
2019-03-11T15:14:56.682Z,45.2
2019-03-11T15:19:53.041Z,45.3
2019-03-11T15:24:48.939Z,45.3
2019-03-11T15:29:44.736Z,45.8
2019-03-11T15:34:40.508Z,46
2019-03-11T15:39:36.339Z,46.9
2019-03-11T15:44:32.335Z,47.7
2019-03-11T15:49:29.746Z,48.7
2019-03-11T15:54:26.103Z,49.8
2019-03-11T15:59:21.879Z,50.4
2019-03-11T16:04:17.920Z,50.5
2019-03-11T16:09:18.967Z,50.9
2019-03-11T16:14:09.615Z,51.3
2019-03-11T16:19:05.639Z,51.9
2019-03-11T16:24:01.822Z,52.4
2019-03-11T16:28:57.910Z,52.5
2019-03-11T16:33:53.516Z,53.3
2019-03-11T16:38:48.820Z,54.4
2019-03-11T16:43:45.135Z,55.3
2019-03-11T16:48:41.251Z,55.6
2019-03-11T16:53:37.760Z,55.9
2019-03-11T16:58:33.793Z,55.7
2019-03-11T17:03:32.425Z,55.6
2019-03-11T17:08:26.310Z,55.6
2019-03-11T17:13:23.292Z,55.5
2019-03-11T17:18:20.398Z,56.1
2019-03-11T17:23:17.120Z,56.4
2019-03-11T17:28:13.822Z,56
2019-03-11T17:38:06.501Z,57.4
2019-03-11T17:43:02.874Z,57.4
2019-03-11T17:47:58.728Z,57.6
2019-03-11T17:52:54.163Z,58.1
2019-03-11T17:57:50.688Z,58.2
2019-03-11T18:02:45.910Z,58.7
2019-03-11T18:07:41.981Z,58.6
2019-03-11T18:12:37.763Z,58.4
2019-03-11T18:17:34.333Z,58.9
2019-03-11T18:22:29.923Z,59
2019-03-11T18:27:26.071Z,59.5
2019-03-11T18:32:22.021Z,59.3
2019-03-11T18:37:18.123Z,59.2
2019-03-11T18:42:24.827Z,59.6
2019-03-11T18:47:09.754Z,59.5
2019-03-11T18:52:05.349Z,59.7
2019-03-11T18:57:01.552Z,59.5
2019-03-11T19:01:57.051Z,59.5
2019-03-11T19:06:53.034Z,59.8
2019-03-11T19:11:48.791Z,59.7
2019-03-11T19:16:44.680Z,60.1
2019-03-11T19:26:36.471Z,60.4
2019-03-11T19:31:32.258Z,60.8
2019-03-11T19:36:28.122Z,60.5
2019-03-11T19:41:24.175Z,60.9
2019-03-11T19:46:20.359Z,60.5
2019-03-11T19:51:16.066Z,60.5
2019-03-11T19:56:12.866Z,60.9
2019-03-11T20:06:04.061Z,60.7
2019-03-11T20:11:00.154Z,60.6
2019-03-11T20:15:55.960Z,60.4
2019-03-11T20:20:52.153Z,60.4
2019-03-11T20:25:48.212Z,60.7
2019-03-11T20:30:45.499Z,60.6
2019-03-11T20:35:40.771Z,60.7
2019-03-11T20:40:36.619Z,60.6
2019-03-11T20:45:32.650Z,60.8
2019-03-11T20:50:37.498Z,60.9
2019-03-11T20:55:24.136Z,61.4
2019-03-11T21:00:20.191Z,61.8
2019-03-11T21:05:16.293Z,62.2
2019-03-11T21:10:12.302Z,61.7
2019-03-11T21:15:08.544Z,61.9
2019-03-11T21:20:05.442Z,61.9
2019-03-11T21:25:00.979Z,61.9
2019-03-11T21:29:56.928Z,62.1
2019-03-11T21:34:53.087Z,61.7
2019-03-11T21:39:48.530Z,61.5
2019-03-11T21:44:44.696Z,61.1
2019-03-11T21:49:41.227Z,61
2019-03-11T21:54:36.465Z,61.2
2019-03-11T21:59:32.317Z,60.8
2019-03-11T22:04:28.313Z,60.9
2019-03-11T22:09:24.211Z,60.8
2019-03-11T22:14:20.238Z,60.8
2019-03-11T22:19:16.045Z,60.8
2019-03-11T22:24:11.966Z,60.5
2019-03-11T22:29:07.521Z,60.9
2019-03-11T22:34:03.648Z,60.9
2019-03-11T22:39:00.006Z,60.7
2019-03-11T22:43:56.159Z,60.9
2019-03-11T22:48:52.274Z,61.2
2019-03-11T22:53:51.451Z,61.2
2019-03-11T22:58:44.385Z,61.2
2019-03-11T23:03:40.535Z,61.1
2019-03-11T23:08:36.372Z,61.3
2019-03-11T23:13:32.356Z,61.6
2019-03-11T23:18:28.257Z,61.6
2019-03-11T23:23:24.360Z,62.2
2019-03-11T23:28:20.176Z,61.9
2019-03-11T23:33:16.287Z,62.2
2019-03-11T23:38:12.248Z,62.3
2019-03-11T23:43:08.529Z,62.5
2019-03-11T23:48:04.340Z,62.7
2019-03-11T23:53:00.319Z,62.6
2019-03-11T23:57:56.373Z,62.5
